sensor_id;sensor_type;location;lat;lon;timestamp;P1;durP1;ratioP1;P2;durP2;ratioP2
18752;SDS011;9505;50.882;5.350;2022-11-15T00:01:47;45.45;;;14.95;;
18752;SDS011;9505;50.882;5.350;2022-11-15T00:04:13;39.28;;;14.10;;
18752;SDS011;9505;50.882;5.350;2022-11-15T00:06:39;46.80;;;14.18;;
18752;SDS011;9505;50.882;5.350;2022-11-15T00:09:04;42.78;;;13.80;;
18752;SDS011;9505;50.882;5.350;2022-11-15T00:11:30;35.28;;;12.20;;
18752;SDS011;9505;50.882;5.350;2022-11-15T00:13:56;44.72;;;13.63;;
18752;SDS011;9505;50.882;5.350;2022-11-15T00:16:23;37.13;;;13.57;;
18752;SDS011;9505;50.882;5.350;2022-11-15T00:18:49;37.50;;;12.05;;
18752;SDS011;9505;50.882;5.350;2022-11-15T00:21:15;38.17;;;13.45;;
18752;SDS011;9505;50.882;5.350;2022-11-15T00:23:42;35.97;;;11.98;;
18752;SDS011;9505;50.882;5.350;2022-11-15T00:26:10;32.20;;;11.38;;
18752;SDS011;9505;50.882;5.350;2022-11-15T00:28:37;34.22;;;12.00;;
18752;SDS011;9505;50.882;5.350;2022-11-15T00:31:04;34.88;;;12.10;;
18752;SDS011;9505;50.882;5.350;2022-11-15T00:33:31;36.78;;;12.68;;
18752;SDS011;9505;50.882;5.350;2022-11-15T00:36:04;35.58;;;11.90;;
18752;SDS011;9505;50.882;5.350;2022-11-15T00:38:37;31.50;;;11.35;;
18752;SDS011;9505;50.882;5.350;2022-11-15T00:41:04;31.10;;;11.48;;
18752;SDS011;9505;50.882;5.350;2022-11-15T00:43:32;29.35;;;11.40;;
18752;SDS011;9505;50.882;5.350;2022-11-15T00:45:58;41.67;;;11.43;;
18752;SDS011;9505;50.882;5.350;2022-11-15T00:48:23;28.13;;;11.30;;
18752;SDS011;9505;50.882;5.350;2022-11-15T00:50:49;33.38;;;11.77;;
18752;SDS011;9505;50.882;5.350;2022-11-15T00:53:15;33.88;;;11.85;;
18752;SDS011;9505;50.882;5.350;2022-11-15T00:55:41;32.22;;;11.07;;
18752;SDS011;9505;50.882;5.350;2022-11-15T00:58:07;33.55;;;11.23;;
18752;SDS011;9505;50.882;5.350;2022-11-15T01:00:33;32.67;;;10.77;;
18752;SDS011;9505;50.882;5.350;2022-11-15T01:02:59;32.13;;;11.32;;
18752;SDS011;9505;50.882;5.350;2022-11-15T01:05:25;43.42;;;11.85;;
18752;SDS011;9505;50.882;5.350;2022-11-15T01:07:55;27.63;;;10.20;;
18752;SDS011;9505;50.882;5.350;2022-11-15T01:10:21;28.65;;;10.38;;
18752;SDS011;9505;50.882;5.350;2022-11-15T01:12:48;35.67;;;10.75;;
18752;SDS011;9505;50.882;5.350;2022-11-15T01:15:14;21.38;;;9.68;;
18752;SDS011;9505;50.882;5.350;2022-11-15T01:17:39;25.90;;;9.45;;
18752;SDS011;9505;50.882;5.350;2022-11-15T01:20:05;32.42;;;10.40;;
18752;SDS011;9505;50.882;5.350;2022-11-15T01:22:31;34.05;;;10.73;;
18752;SDS011;9505;50.882;5.350;2022-11-15T01:24:57;30.08;;;10.45;;
18752;SDS011;9505;50.882;5.350;2022-11-15T01:27:23;35.20;;;11.13;;
18752;SDS011;9505;50.882;5.350;2022-11-15T01:29:48;24.77;;;10.25;;
18752;SDS011;9505;50.882;5.350;2022-11-15T01:32:14;27.70;;;9.60;;
18752;SDS011;9505;50.882;5.350;2022-11-15T01:34:40;27.77;;;9.77;;
18752;SDS011;9505;50.882;5.350;2022-11-15T01:37:05;27.23;;;9.95;;
18752;SDS011;9505;50.882;5.350;2022-11-15T01:39:31;30.98;;;10.00;;
18752;SDS011;9505;50.882;5.350;2022-11-15T01:41:56;26.38;;;9.95;;
18752;SDS011;9505;50.882;5.350;2022-11-15T01:44:44;28.75;;;10.75;;
18752;SDS011;9505;50.882;5.350;2022-11-15T01:47:18;31.45;;;10.00;;
18752;SDS011;9505;50.882;5.350;2022-11-15T01:49:58;27.77;;;10.90;;
18752;SDS011;9505;50.882;5.350;2022-11-15T01:52:46;27.35;;;10.43;;
18752;SDS011;9505;50.882;5.350;2022-11-15T01:55:30;38.60;;;10.30;;
18752;SDS011;9505;50.882;5.350;2022-11-15T01:57:57;30.77;;;10.27;;
18752;SDS011;9505;50.882;5.350;2022-11-15T02:00:27;31.52;;;10.68;;
18752;SDS011;9505;50.882;5.350;2022-11-15T02:02:53;32.03;;;10.02;;
18752;SDS011;9505;50.882;5.350;2022-11-15T02:05:19;32.63;;;10.40;;
18752;SDS011;9505;50.882;5.350;2022-11-15T02:07:45;22.85;;;9.48;;
18752;SDS011;9505;50.882;5.350;2022-11-15T02:10:19;32.90;;;10.32;;
18752;SDS011;9505;50.882;5.350;2022-11-15T02:12:46;30.85;;;9.38;;
18752;SDS011;9505;50.882;5.350;2022-11-15T02:15:13;35.08;;;11.05;;
18752;SDS011;9505;50.882;5.350;2022-11-15T02:32:10;27.27;;;9.05;;
18752;SDS011;9505;50.882;5.350;2022-11-15T02:34:56;19.60;;;7.95;;
18752;SDS011;9505;50.882;5.350;2022-11-15T02:37:56;25.05;;;8.20;;
18752;SDS011;9505;50.882;5.350;2022-11-15T02:43:36;31.23;;;9.75;;
18752;SDS011;9505;50.882;5.350;2022-11-15T02:49:36;25.60;;;9.00;;
18752;SDS011;9505;50.882;5.350;2022-11-15T02:52:04;27.33;;;8.55;;
18752;SDS011;9505;50.882;5.350;2022-11-15T02:54:30;24.05;;;8.45;;
18752;SDS011;9505;50.882;5.350;2022-11-15T02:57:01;31.27;;;8.65;;
18752;SDS011;9505;50.882;5.350;2022-11-15T02:59:51;25.38;;;8.30;;
18752;SDS011;9505;50.882;5.350;2022-11-15T03:05:01;21.83;;;8.48;;
18752;SDS011;9505;50.882;5.350;2022-11-15T03:12:58;25.10;;;8.48;;
18752;SDS011;9505;50.882;5.350;2022-11-15T03:18:14;24.92;;;7.75;;
18752;SDS011;9505;50.882;5.350;2022-11-15T03:20:46;20.73;;;7.90;;
18752;SDS011;9505;50.882;5.350;2022-11-15T03:23:13;29.05;;;8.70;;
18752;SDS011;9505;50.882;5.350;2022-11-15T03:25:43;22.77;;;7.90;;
18752;SDS011;9505;50.882;5.350;2022-11-15T03:28:12;28.67;;;8.32;;
18752;SDS011;9505;50.882;5.350;2022-11-15T03:30:43;17.63;;;7.30;;
18752;SDS011;9505;50.882;5.350;2022-11-15T03:33:12;27.90;;;8.68;;
18752;SDS011;9505;50.882;5.350;2022-11-15T03:35:39;25.98;;;8.10;;
18752;SDS011;9505;50.882;5.350;2022-11-15T03:38:22;23.25;;;8.27;;
18752;SDS011;9505;50.882;5.350;2022-11-15T03:41:06;28.92;;;8.45;;
18752;SDS011;9505;50.882;5.350;2022-11-15T03:43:52;22.55;;;7.78;;
18752;SDS011;9505;50.882;5.350;2022-11-15T03:46:25;21.75;;;7.72;;
18752;SDS011;9505;50.882;5.350;2022-11-15T03:49:12;26.38;;;8.60;;
18752;SDS011;9505;50.882;5.350;2022-11-15T03:51:44;19.45;;;7.47;;
18752;SDS011;9505;50.882;5.350;2022-11-15T03:54:11;20.48;;;6.95;;
18752;SDS011;9505;50.882;5.350;2022-11-15T03:56:37;27.10;;;8.30;;
18752;SDS011;9505;50.882;5.350;2022-11-15T03:59:02;23.33;;;7.60;;
18752;SDS011;9505;50.882;5.350;2022-11-15T04:01:28;18.05;;;7.25;;
18752;SDS011;9505;50.882;5.350;2022-11-15T04:03:53;19.13;;;7.13;;
18752;SDS011;9505;50.882;5.350;2022-11-15T04:06:19;23.83;;;7.93;;
18752;SDS011;9505;50.882;5.350;2022-11-15T04:08:45;22.83;;;7.55;;
18752;SDS011;9505;50.882;5.350;2022-11-15T04:11:10;28.52;;;8.63;;
18752;SDS011;9505;50.882;5.350;2022-11-15T04:13:36;26.25;;;7.85;;
18752;SDS011;9505;50.882;5.350;2022-11-15T04:16:01;24.13;;;7.68;;
18752;SDS011;9505;50.882;5.350;2022-11-15T04:18:27;27.35;;;8.63;;
18752;SDS011;9505;50.882;5.350;2022-11-15T04:20:52;20.58;;;7.65;;
18752;SDS011;9505;50.882;5.350;2022-11-15T04:23:37;33.08;;;8.52;;
18752;SDS011;9505;50.882;5.350;2022-11-15T04:26:21;32.13;;;8.25;;
18752;SDS011;9505;50.882;5.350;2022-11-15T04:28:48;19.98;;;8.38;;
18752;SDS011;9505;50.882;5.350;2022-11-15T04:31:32;24.73;;;8.93;;
18752;SDS011;9505;50.882;5.350;2022-11-15T04:33:58;25.55;;;9.23;;
18752;SDS011;9505;50.882;5.350;2022-11-15T04:36:24;32.22;;;8.80;;
18752;SDS011;9505;50.882;5.350;2022-11-15T04:39:08;26.45;;;8.48;;
18752;SDS011;9505;50.882;5.350;2022-11-15T04:41:34;23.52;;;8.57;;
18752;SDS011;9505;50.882;5.350;2022-11-15T04:44:00;31.98;;;9.07;;
18752;SDS011;9505;50.882;5.350;2022-11-15T04:46:25;24.98;;;8.63;;
18752;SDS011;9505;50.882;5.350;2022-11-15T04:48:51;16.52;;;6.57;;
18752;SDS011;9505;50.882;5.350;2022-11-15T04:51:17;24.10;;;8.52;;
18752;SDS011;9505;50.882;5.350;2022-11-15T04:53:43;32.97;;;9.60;;
18752;SDS011;9505;50.882;5.350;2022-11-15T04:56:08;20.70;;;6.00;;
18752;SDS011;9505;50.882;5.350;2022-11-15T04:58:34;11.20;;;4.05;;
18752;SDS011;9505;50.882;5.350;2022-11-15T05:01:09;16.25;;;4.32;;
18752;SDS011;9505;50.882;5.350;2022-11-15T05:03:37;20.88;;;4.07;;
18752;SDS011;9505;50.882;5.350;2022-11-15T05:06:21;13.65;;;2.47;;
18752;SDS011;9505;50.882;5.350;2022-11-15T05:08:47;8.60;;;2.60;;
18752;SDS011;9505;50.882;5.350;2022-11-15T05:11:13;20.40;;;3.33;;
18752;SDS011;9505;50.882;5.350;2022-11-15T05:13:38;13.38;;;3.40;;
18752;SDS011;9505;50.882;5.350;2022-11-15T05:16:04;19.38;;;3.80;;
18752;SDS011;9505;50.882;5.350;2022-11-15T05:18:29;21.48;;;4.07;;
18752;SDS011;9505;50.882;5.350;2022-11-15T05:20:55;15.02;;;4.60;;
18752;SDS011;9505;50.882;5.350;2022-11-15T05:23:21;28.13;;;5.85;;
18752;SDS011;9505;50.882;5.350;2022-11-15T05:25:46;20.60;;;4.18;;
18752;SDS011;9505;50.882;5.350;2022-11-15T05:28:12;17.27;;;4.20;;
18752;SDS011;9505;50.882;5.350;2022-11-15T05:30:38;19.27;;;4.97;;
18752;SDS011;9505;50.882;5.350;2022-11-15T05:33:03;17.40;;;4.00;;
18752;SDS011;9505;50.882;5.350;2022-11-15T05:35:30;14.15;;;3.40;;
18752;SDS011;9505;50.882;5.350;2022-11-15T05:37:59;30.98;;;4.45;;
18752;SDS011;9505;50.882;5.350;2022-11-15T05:40:25;20.55;;;4.32;;
18752;SDS011;9505;50.882;5.350;2022-11-15T05:42:51;22.92;;;4.93;;
18752;SDS011;9505;50.882;5.350;2022-11-15T05:45:17;14.88;;;3.20;;
18752;SDS011;9505;50.882;5.350;2022-11-15T05:47:43;18.77;;;3.70;;
18752;SDS011;9505;50.882;5.350;2022-11-15T05:50:11;17.30;;;3.75;;
18752;SDS011;9505;50.882;5.350;2022-11-15T05:52:39;19.55;;;3.85;;
18752;SDS011;9505;50.882;5.350;2022-11-15T05:55:05;18.58;;;3.67;;
18752;SDS011;9505;50.882;5.350;2022-11-15T05:57:32;24.15;;;4.05;;
18752;SDS011;9505;50.882;5.350;2022-11-15T05:59:57;19.77;;;4.25;;
18752;SDS011;9505;50.882;5.350;2022-11-15T06:02:23;17.42;;;3.65;;
18752;SDS011;9505;50.882;5.350;2022-11-15T06:04:49;10.27;;;3.08;;
18752;SDS011;9505;50.882;5.350;2022-11-15T06:07:14;19.08;;;4.40;;
18752;SDS011;9505;50.882;5.350;2022-11-15T06:09:40;15.70;;;3.83;;
18752;SDS011;9505;50.882;5.350;2022-11-15T06:12:05;14.10;;;3.63;;
18752;SDS011;9505;50.882;5.350;2022-11-15T06:14:31;22.65;;;4.70;;
18752;SDS011;9505;50.882;5.350;2022-11-15T06:16:57;29.15;;;5.28;;
18752;SDS011;9505;50.882;5.350;2022-11-15T06:19:22;31.38;;;5.93;;
18752;SDS011;9505;50.882;5.350;2022-11-15T06:21:48;24.25;;;4.70;;
18752;SDS011;9505;50.882;5.350;2022-11-15T06:24:13;20.40;;;4.25;;
18752;SDS011;9505;50.882;5.350;2022-11-15T06:26:39;36.80;;;6.03;;
18752;SDS011;9505;50.882;5.350;2022-11-15T06:29:04;24.02;;;4.50;;
18752;SDS011;9505;50.882;5.350;2022-11-15T06:31:30;18.23;;;4.00;;
18752;SDS011;9505;50.882;5.350;2022-11-15T06:33:56;20.85;;;4.00;;
18752;SDS011;9505;50.882;5.350;2022-11-15T06:36:21;19.58;;;3.72;;
18752;SDS011;9505;50.882;5.350;2022-11-15T06:38:48;24.95;;;4.25;;
18752;SDS011;9505;50.882;5.350;2022-11-15T06:41:14;40.17;;;6.03;;
18752;SDS011;9505;50.882;5.350;2022-11-15T06:43:40;29.05;;;5.20;;
18752;SDS011;9505;50.882;5.350;2022-11-15T06:46:06;25.90;;;5.25;;
18752;SDS011;9505;50.882;5.350;2022-11-15T06:48:32;24.48;;;5.00;;
18752;SDS011;9505;50.882;5.350;2022-11-15T06:50:59;19.33;;;3.92;;
18752;SDS011;9505;50.882;5.350;2022-11-15T06:53:26;21.00;;;4.63;;
18752;SDS011;9505;50.882;5.350;2022-11-15T06:55:52;18.52;;;4.30;;
18752;SDS011;9505;50.882;5.350;2022-11-15T06:58:18;27.77;;;5.32;;
18752;SDS011;9505;50.882;5.350;2022-11-15T07:00:45;19.65;;;4.25;;
18752;SDS011;9505;50.882;5.350;2022-11-15T07:03:11;21.00;;;4.70;;
18752;SDS011;9505;50.882;5.350;2022-11-15T07:05:36;18.98;;;4.40;;
18752;SDS011;9505;50.882;5.350;2022-11-15T07:08:02;19.98;;;4.80;;
18752;SDS011;9505;50.882;5.350;2022-11-15T07:10:28;14.45;;;4.05;;
18752;SDS011;9505;50.882;5.350;2022-11-15T07:12:54;26.77;;;5.32;;
18752;SDS011;9505;50.882;5.350;2022-11-15T07:15:21;21.33;;;5.07;;
18752;SDS011;9505;50.882;5.350;2022-11-15T07:17:48;23.40;;;5.93;;
18752;SDS011;9505;50.882;5.350;2022-11-15T07:20:14;24.40;;;5.57;;
18752;SDS011;9505;50.882;5.350;2022-11-15T07:22:41;17.42;;;5.10;;
18752;SDS011;9505;50.882;5.350;2022-11-15T07:25:07;21.63;;;4.95;;
18752;SDS011;9505;50.882;5.350;2022-11-15T07:27:33;35.22;;;6.90;;
18752;SDS011;9505;50.882;5.350;2022-11-15T07:29:59;34.60;;;6.63;;
18752;SDS011;9505;50.882;5.350;2022-11-15T07:32:24;20.33;;;5.65;;
18752;SDS011;9505;50.882;5.350;2022-11-15T07:34:50;23.02;;;5.55;;
18752;SDS011;9505;50.882;5.350;2022-11-15T07:37:16;17.15;;;5.32;;
18752;SDS011;9505;50.882;5.350;2022-11-15T07:39:42;29.00;;;5.82;;
18752;SDS011;9505;50.882;5.350;2022-11-15T07:42:08;19.58;;;5.07;;
18752;SDS011;9505;50.882;5.350;2022-11-15T07:44:52;22.75;;;5.70;;
18752;SDS011;9505;50.882;5.350;2022-11-15T07:47:18;21.05;;;5.13;;
18752;SDS011;9505;50.882;5.350;2022-11-15T07:49:44;26.33;;;6.18;;
18752;SDS011;9505;50.882;5.350;2022-11-15T07:52:10;23.15;;;5.90;;
18752;SDS011;9505;50.882;5.350;2022-11-15T07:54:37;30.38;;;6.32;;
18752;SDS011;9505;50.882;5.350;2022-11-15T07:57:02;20.17;;;5.70;;
18752;SDS011;9505;50.882;5.350;2022-11-15T07:59:28;21.50;;;5.25;;
18752;SDS011;9505;50.882;5.350;2022-11-15T08:01:54;22.55;;;4.80;;
18752;SDS011;9505;50.882;5.350;2022-11-15T08:04:19;22.33;;;4.80;;
18752;SDS011;9505;50.882;5.350;2022-11-15T08:06:45;25.42;;;5.35;;
18752;SDS011;9505;50.882;5.350;2022-11-15T08:09:11;18.92;;;4.18;;
18752;SDS011;9505;50.882;5.350;2022-11-15T08:11:36;18.08;;;4.05;;
18752;SDS011;9505;50.882;5.350;2022-11-15T08:14:02;21.25;;;4.55;;
18752;SDS011;9505;50.882;5.350;2022-11-15T08:16:28;24.77;;;4.50;;
18752;SDS011;9505;50.882;5.350;2022-11-15T08:18:53;22.02;;;3.65;;
18752;SDS011;9505;50.882;5.350;2022-11-15T08:21:19;26.35;;;4.72;;
18752;SDS011;9505;50.882;5.350;2022-11-15T08:23:45;19.17;;;4.10;;
18752;SDS011;9505;50.882;5.350;2022-11-15T08:26:11;20.48;;;3.90;;
18752;SDS011;9505;50.882;5.350;2022-11-15T08:28:37;23.23;;;4.35;;
18752;SDS011;9505;50.882;5.350;2022-11-15T08:31:03;25.33;;;3.50;;
18752;SDS011;9505;50.882;5.350;2022-11-15T08:33:29;19.65;;;3.92;;
18752;SDS011;9505;50.882;5.350;2022-11-15T08:35:56;13.13;;;3.30;;
18752;SDS011;9505;50.882;5.350;2022-11-15T08:38:22;39.35;;;4.60;;
18752;SDS011;9505;50.882;5.350;2022-11-15T08:40:48;21.88;;;4.30;;
18752;SDS011;9505;50.882;5.350;2022-11-15T08:43:15;20.90;;;4.28;;
18752;SDS011;9505;50.882;5.350;2022-11-15T08:45:40;24.23;;;4.00;;
18752;SDS011;9505;50.882;5.350;2022-11-15T08:48:06;26.20;;;3.70;;
18752;SDS011;9505;50.882;5.350;2022-11-15T08:50:31;14.57;;;2.30;;
18752;SDS011;9505;50.882;5.350;2022-11-15T08:52:57;15.05;;;2.15;;
18752;SDS011;9505;50.882;5.350;2022-11-15T08:55:28;20.52;;;2.58;;
18752;SDS011;9505;50.882;5.350;2022-11-15T08:57:56;20.65;;;2.70;;
18752;SDS011;9505;50.882;5.350;2022-11-15T09:00:22;14.43;;;2.30;;
18752;SDS011;9505;50.882;5.350;2022-11-15T09:02:48;19.13;;;2.60;;
18752;SDS011;9505;50.882;5.350;2022-11-15T09:05:13;13.27;;;1.95;;
18752;SDS011;9505;50.882;5.350;2022-11-15T09:07:40;10.63;;;1.75;;
18752;SDS011;9505;50.882;5.350;2022-11-15T09:10:06;25.17;;;2.58;;
18752;SDS011;9505;50.882;5.350;2022-11-15T09:12:32;19.50;;;2.60;;
18752;SDS011;9505;50.882;5.350;2022-11-15T09:14:57;18.58;;;2.50;;
18752;SDS011;9505;50.882;5.350;2022-11-15T09:17:23;13.40;;;1.88;;
18752;SDS011;9505;50.882;5.350;2022-11-15T09:19:49;28.95;;;2.65;;
18752;SDS011;9505;50.882;5.350;2022-11-15T09:22:14;10.63;;;1.67;;
18752;SDS011;9505;50.882;5.350;2022-11-15T09:24:40;19.08;;;2.42;;
18752;SDS011;9505;50.882;5.350;2022-11-15T09:27:05;12.15;;;1.63;;
18752;SDS011;9505;50.882;5.350;2022-11-15T09:29:31;13.95;;;1.73;;
18752;SDS011;9505;50.882;5.350;2022-11-15T09:31:57;17.42;;;2.08;;
18752;SDS011;9505;50.882;5.350;2022-11-15T09:34:22;15.15;;;1.92;;
18752;SDS011;9505;50.882;5.350;2022-11-15T09:36:48;28.60;;;3.20;;
18752;SDS011;9505;50.882;5.350;2022-11-15T09:39:13;15.07;;;1.77;;
18752;SDS011;9505;50.882;5.350;2022-11-15T09:49:22;14.93;;;1.88;;
18752;SDS011;9505;50.882;5.350;2022-11-15T09:51:49;19.13;;;2.53;;
18752;SDS011;9505;50.882;5.350;2022-11-15T09:54:33;15.27;;;1.80;;
18752;SDS011;9505;50.882;5.350;2022-11-15T09:59:37;15.57;;;1.77;;
18752;SDS011;9505;50.882;5.350;2022-11-15T10:02:18;18.80;;;2.50;;
18752;SDS011;9505;50.882;5.350;2022-11-15T10:05:04;15.32;;;1.85;;
18752;SDS011;9505;50.882;5.350;2022-11-15T10:07:53;15.05;;;2.20;;
18752;SDS011;9505;50.882;5.350;2022-11-15T10:12:51;19.60;;;2.33;;
18752;SDS011;9505;50.882;5.350;2022-11-15T10:15:18;17.17;;;1.95;;
18752;SDS011;9505;50.882;5.350;2022-11-15T10:20:21;11.90;;;1.52;;
18752;SDS011;9505;50.882;5.350;2022-11-15T10:22:48;14.50;;;1.77;;
18752;SDS011;9505;50.882;5.350;2022-11-15T10:30:45;19.60;;;2.17;;
18752;SDS011;9505;50.882;5.350;2022-11-15T10:33:20;18.55;;;2.35;;
18752;SDS011;9505;50.882;5.350;2022-11-15T10:36:32;15.25;;;1.83;;
18752;SDS011;9505;50.882;5.350;2022-11-15T10:46:37;12.38;;;1.48;;
18752;SDS011;9505;50.882;5.350;2022-11-15T10:49:18;26.25;;;2.85;;
18752;SDS011;9505;50.882;5.350;2022-11-15T10:54:10;13.77;;;1.90;;
18752;SDS011;9505;50.882;5.350;2022-11-15T10:56:38;16.20;;;1.83;;
18752;SDS011;9505;50.882;5.350;2022-11-15T10:59:05;20.92;;;2.03;;
18752;SDS011;9505;50.882;5.350;2022-11-15T11:01:45;9.52;;;1.27;;
18752;SDS011;9505;50.882;5.350;2022-11-15T11:04:12;15.95;;;1.90;;
18752;SDS011;9505;50.882;5.350;2022-11-15T11:06:51;26.90;;;2.47;;
18752;SDS011;9505;50.882;5.350;2022-11-15T11:09:37;27.95;;;2.88;;
18752;SDS011;9505;50.882;5.350;2022-11-15T11:12:04;19.98;;;2.28;;
18752;SDS011;9505;50.882;5.350;2022-11-15T11:14:35;15.70;;;1.70;;
18752;SDS011;9505;50.882;5.350;2022-11-15T11:17:03;18.95;;;1.80;;
18752;SDS011;9505;50.882;5.350;2022-11-15T11:22:09;16.65;;;1.55;;
18752;SDS011;9505;50.882;5.350;2022-11-15T11:24:42;18.10;;;1.83;;
18752;SDS011;9505;50.882;5.350;2022-11-15T11:32:21;28.63;;;2.92;;
18752;SDS011;9505;50.882;5.350;2022-11-15T11:35:14;13.02;;;1.50;;
18752;SDS011;9505;50.882;5.350;2022-11-15T11:37:51;15.85;;;1.55;;
18752;SDS011;9505;50.882;5.350;2022-11-15T11:51:34;18.95;;;1.85;;
18752;SDS011;9505;50.882;5.350;2022-11-15T11:56:36;9.63;;;1.25;;
18752;SDS011;9505;50.882;5.350;2022-11-15T11:59:28;16.33;;;1.77;;
18752;SDS011;9505;50.882;5.350;2022-11-15T12:01:56;14.38;;;1.42;;
18752;SDS011;9505;50.882;5.350;2022-11-15T12:04:30;14.90;;;2.00;;
18752;SDS011;9505;50.882;5.350;2022-11-15T12:07:08;12.27;;;1.58;;
18752;SDS011;9505;50.882;5.350;2022-11-15T12:09:57;12.32;;;1.55;;
18752;SDS011;9505;50.882;5.350;2022-11-15T12:15:17;17.15;;;1.60;;
18752;SDS011;9505;50.882;5.350;2022-11-15T12:17:47;14.43;;;1.52;;
18752;SDS011;9505;50.882;5.350;2022-11-15T12:20:23;24.13;;;2.33;;
18752;SDS011;9505;50.882;5.350;2022-11-15T12:25:47;7.53;;;1.25;;
18752;SDS011;9505;50.882;5.350;2022-11-15T12:30:56;12.05;;;1.52;;
18752;SDS011;9505;50.882;5.350;2022-11-15T12:36:10;8.73;;;1.42;;
18752;SDS011;9505;50.882;5.350;2022-11-15T12:41:28;19.10;;;2.25;;
18752;SDS011;9505;50.882;5.350;2022-11-15T12:43:57;22.40;;;2.70;;
18752;SDS011;9505;50.882;5.350;2022-11-15T13:02:41;13.98;;;1.80;;
18752;SDS011;9505;50.882;5.350;2022-11-15T13:07:58;11.88;;;1.52;;
18752;SDS011;9505;50.882;5.350;2022-11-15T13:13:07;46.03;;;4.80;;
18752;SDS011;9505;50.882;5.350;2022-11-15T13:18:47;44.00;;;4.55;;
18752;SDS011;9505;50.882;5.350;2022-11-15T13:21:03;56.30;;;6.05;;
18752;SDS011;9505;50.882;5.350;2022-11-15T13:23:54;19.40;;;2.25;;
18752;SDS011;9505;50.882;5.350;2022-11-15T13:26:20;18.95;;;2.08;;
18752;SDS011;9505;50.882;5.350;2022-11-15T13:28:50;54.03;;;5.32;;
18752;SDS011;9505;50.882;5.350;2022-11-15T13:31:24;54.63;;;5.57;;
18752;SDS011;9505;50.882;5.350;2022-11-15T13:33:50;54.30;;;5.50;;
18752;SDS011;9505;50.882;5.350;2022-11-15T13:36:24;46.70;;;5.18;;
18752;SDS011;9505;50.882;5.350;2022-11-15T13:39:03;57.22;;;5.75;;
18752;SDS011;9505;50.882;5.350;2022-11-15T13:41:49;20.25;;;2.60;;
18752;SDS011;9505;50.882;5.350;2022-11-15T13:44:20;18.20;;;2.42;;
18752;SDS011;9505;50.882;5.350;2022-11-15T13:46:47;18.48;;;2.33;;
18752;SDS011;9505;50.882;5.350;2022-11-15T13:49:13;65.03;;;6.07;;
18752;SDS011;9505;50.882;5.350;2022-11-15T13:51:46;58.08;;;5.97;;
18752;SDS011;9505;50.882;5.350;2022-11-15T13:59:26;57.47;;;5.95;;
18752;SDS011;9505;50.882;5.350;2022-11-15T14:01:58;44.25;;;4.50;;
18752;SDS011;9505;50.882;5.350;2022-11-15T14:04:28;52.33;;;5.30;;
18752;SDS011;9505;50.882;5.350;2022-11-15T14:06:58;49.85;;;4.95;;
18752;SDS011;9505;50.882;5.350;2022-11-15T14:09:33;34.40;;;3.67;;
18752;SDS011;9505;50.882;5.350;2022-11-15T14:14:49;24.40;;;3.10;;
18752;SDS011;9505;50.882;5.350;2022-11-15T14:17:19;58.95;;;6.00;;
18752;SDS011;9505;50.882;5.350;2022-11-15T14:19:59;14.88;;;1.77;;
18752;SDS011;9505;50.882;5.350;2022-11-15T14:22:25;55.75;;;5.70;;
18752;SDS011;9505;50.882;5.350;2022-11-15T14:25:05;69.03;;;7.05;;
18752;SDS011;9505;50.882;5.350;2022-11-15T14:27:41;13.48;;;2.10;;
18752;SDS011;9505;50.882;5.350;2022-11-15T14:30:16;34.78;;;3.83;;
18752;SDS011;9505;50.882;5.350;2022-11-15T14:32:49;31.83;;;3.67;;
18752;SDS011;9505;50.882;5.350;2022-11-15T14:35:17;31.70;;;3.35;;
18752;SDS011;9505;50.882;5.350;2022-11-15T14:37:44;56.33;;;5.75;;
18752;SDS011;9505;50.882;5.350;2022-11-15T14:40:18;51.63;;;5.55;;
18752;SDS011;9505;50.882;5.350;2022-11-15T14:42:46;60.78;;;6.30;;
18752;SDS011;9505;50.882;5.350;2022-11-15T14:45:14;35.83;;;3.85;;
18752;SDS011;9505;50.882;5.350;2022-11-15T14:47:43;23.23;;;2.83;;
18752;SDS011;9505;50.882;5.350;2022-11-15T14:50:16;12.60;;;1.70;;
18752;SDS011;9505;50.882;5.350;2022-11-15T14:52:44;12.32;;;1.67;;
18752;SDS011;9505;50.882;5.350;2022-11-15T14:55:15;42.50;;;4.55;;
18752;SDS011;9505;50.882;5.350;2022-11-15T14:57:53;13.32;;;1.88;;
18752;SDS011;9505;50.882;5.350;2022-11-15T15:00:23;16.40;;;2.33;;
18752;SDS011;9505;50.882;5.350;2022-11-15T15:02:48;55.03;;;5.82;;
18752;SDS011;9505;50.882;5.350;2022-11-15T15:05:19;53.65;;;5.57;;
18752;SDS011;9505;50.882;5.350;2022-11-15T15:07:49;44.67;;;4.68;;
18752;SDS011;9505;50.882;5.350;2022-11-15T15:10:16;43.65;;;4.38;;
18752;SDS011;9505;50.882;5.350;2022-11-15T15:12:42;18.88;;;2.22;;
18752;SDS011;9505;50.882;5.350;2022-11-15T15:15:15;25.35;;;3.10;;
18752;SDS011;9505;50.882;5.350;2022-11-15T15:17:45;7.65;;;1.45;;
18752;SDS011;9505;50.882;5.350;2022-11-15T15:20:10;54.78;;;5.45;;
18752;SDS011;9505;50.882;5.350;2022-11-15T15:22:36;58.13;;;6.07;;
18752;SDS011;9505;50.882;5.350;2022-11-15T15:25:03;22.42;;;2.72;;
18752;SDS011;9505;50.882;5.350;2022-11-15T15:27:35;34.83;;;4.03;;
18752;SDS011;9505;50.882;5.350;2022-11-15T15:30:01;11.60;;;1.70;;
18752;SDS011;9505;50.882;5.350;2022-11-15T15:32:26;57.22;;;6.07;;
18752;SDS011;9505;50.882;5.350;2022-11-15T15:34:52;66.07;;;6.97;;
18752;SDS011;9505;50.882;5.350;2022-11-15T15:39:53;20.80;;;2.70;;
18752;SDS011;9505;50.882;5.350;2022-11-15T15:42:20;25.30;;;3.10;;
18752;SDS011;9505;50.882;5.350;2022-11-15T15:44:47;33.30;;;3.85;;
18752;SDS011;9505;50.882;5.350;2022-11-15T15:47:13;53.22;;;5.65;;
18752;SDS011;9505;50.882;5.350;2022-11-15T15:49:42;61.38;;;6.28;;
18752;SDS011;9505;50.882;5.350;2022-11-15T15:52:07;21.85;;;3.05;;
18752;SDS011;9505;50.882;5.350;2022-11-15T15:54:33;18.77;;;2.63;;
18752;SDS011;9505;50.882;5.350;2022-11-15T15:56:59;53.15;;;5.28;;
18752;SDS011;9505;50.882;5.350;2022-11-15T15:59:24;61.22;;;6.30;;
18752;SDS011;9505;50.882;5.350;2022-11-15T16:01:50;25.52;;;3.03;;
18752;SDS011;9505;50.882;5.350;2022-11-15T16:04:15;10.65;;;2.00;;
18752;SDS011;9505;50.882;5.350;2022-11-15T16:06:41;59.35;;;6.13;;
18752;SDS011;9505;50.882;5.350;2022-11-15T16:09:12;57.30;;;6.25;;
18752;SDS011;9505;50.882;5.350;2022-11-15T16:11:39;44.20;;;5.38;;
18752;SDS011;9505;50.882;5.350;2022-11-15T16:14:05;18.88;;;2.97;;
18752;SDS011;9505;50.882;5.350;2022-11-15T16:16:30;22.60;;;3.28;;
18752;SDS011;9505;50.882;5.350;2022-11-15T16:18:56;65.45;;;7.65;;
18752;SDS011;9505;50.882;5.350;2022-11-15T16:21:22;59.17;;;6.95;;
18752;SDS011;9505;50.882;5.350;2022-11-15T16:23:48;25.27;;;3.92;;
18752;SDS011;9505;50.882;5.350;2022-11-15T16:26:20;20.55;;;3.85;;
18752;SDS011;9505;50.882;5.350;2022-11-15T16:28:49;19.13;;;4.45;;
18752;SDS011;9505;50.882;5.350;2022-11-15T16:31:14;59.33;;;7.70;;
18752;SDS011;9505;50.882;5.350;2022-11-15T16:33:43;62.92;;;7.97;;
18752;SDS011;9505;50.882;5.350;2022-11-15T16:36:24;56.45;;;7.28;;
18752;SDS011;9505;50.882;5.350;2022-11-15T16:38:51;73.90;;;8.90;;
18752;SDS011;9505;50.882;5.350;2022-11-15T16:41:17;51.28;;;7.05;;
18752;SDS011;9505;50.882;5.350;2022-11-15T16:43:44;29.20;;;5.18;;
18752;SDS011;9505;50.882;5.350;2022-11-15T16:46:15;14.70;;;3.50;;
18752;SDS011;9505;50.882;5.350;2022-11-15T16:48:46;22.20;;;4.57;;
18752;SDS011;9505;50.882;5.350;2022-11-15T16:51:12;45.10;;;6.95;;
18752;SDS011;9505;50.882;5.350;2022-11-15T16:53:38;64.35;;;8.57;;
18752;SDS011;9505;50.882;5.350;2022-11-15T16:56:24;46.92;;;7.32;;
18752;SDS011;9505;50.882;5.350;2022-11-15T16:58:51;54.03;;;7.70;;
18752;SDS011;9505;50.882;5.350;2022-11-15T17:01:23;63.25;;;8.75;;
18752;SDS011;9505;50.882;5.350;2022-11-15T17:03:50;56.78;;;8.55;;
18752;SDS011;9505;50.882;5.350;2022-11-15T17:06:17;39.10;;;7.07;;
18752;SDS011;9505;50.882;5.350;2022-11-15T17:08:43;23.95;;;5.78;;
18752;SDS011;9505;50.882;5.350;2022-11-15T17:11:10;36.63;;;6.88;;